sensor_id;sensor_type;location;lat;lon;timestamp;pressure;altitude;pressure_sealevel;temperature;humidity
62634;BME280;48704;50.534;6.442;2022-08-19T00:00:41;95443.28;;;15.83;100.00
62634;BME280;48704;50.534;6.442;2022-08-19T00:03:06;95444.31;;;15.69;100.00
62634;BME280;48704;50.534;6.442;2022-08-19T00:05:32;95440.78;;;15.52;100.00
62634;BME280;48704;50.534;6.442;2022-08-19T00:07:58;95444.63;;;15.37;100.00
62634;BME280;48704;50.534;6.442;2022-08-19T00:10:23;95451.53;;;15.25;100.00
62634;BME280;48704;50.534;6.442;2022-08-19T00:12:49;95455.66;;;15.13;100.00
62634;BME280;48704;50.534;6.442;2022-08-19T00:15:17;95454.38;;;14.97;100.00
62634;BME280;48704;50.534;6.442;2022-08-19T00:17:44;95459.72;;;15.12;100.00
62634;BME280;48704;50.534;6.442;2022-08-19T00:20:12;95461.72;;;15.39;100.00
62634;BME280;48704;50.534;6.442;2022-08-19T00:22:38;95459.47;;;14.82;100.00
62634;BME280;48704;50.534;6.442;2022-08-19T00:25:06;95458.41;;;14.57;100.00
62634;BME280;48704;50.534;6.442;2022-08-19T00:27:32;95458.47;;;15.13;100.00
62634;BME280;48704;50.534;6.442;2022-08-19T00:29:58;95454.88;;;15.13;100.00
62634;BME280;48704;50.534;6.442;2022-08-19T00:32:24;95454.59;;;15.38;100.00
62634;BME280;48704;50.534;6.442;2022-08-19T00:34:50;95452.03;;;15.52;100.00
62634;BME280;48704;50.534;6.442;2022-08-19T00:37:18;95438.75;;;15.58;100.00
62634;BME280;48704;50.534;6.442;2022-08-19T00:39:44;95446.91;;;15.56;100.00
62634;BME280;48704;50.534;6.442;2022-08-19T00:42:10;95451.53;;;15.25;100.00
62634;BME280;48704;50.534;6.442;2022-08-19T00:44:35;95450.00;;;15.47;100.00
62634;BME280;48704;50.534;6.442;2022-08-19T00:47:00;95446.16;;;15.55;100.00
62634;BME280;48704;50.534;6.442;2022-08-19T00:49:30;95450.00;;;15.30;100.00
62634;BME280;48704;50.534;6.442;2022-08-19T00:52:03;95447.72;;;15.28;100.00
62634;BME280;48704;50.534;6.442;2022-08-19T00:54:29;95445.66;;;15.29;100.00
62634;BME280;48704;50.534;6.442;2022-08-19T00:56:57;95448.19;;;15.49;100.00
62634;BME280;48704;50.534;6.442;2022-08-19T00:59:23;95442.81;;;15.68;100.00
62634;BME280;48704;50.534;6.442;2022-08-19T01:01:49;95439.75;;;15.66;100.00
62634;BME280;48704;50.534;6.442;2022-08-19T01:04:14;95440.81;;;15.57;100.00
62634;BME280;48704;50.534;6.442;2022-08-19T01:06:41;95441.25;;;15.78;100.00
62634;BME280;48704;50.534;6.442;2022-08-19T01:09:07;95442.28;;;15.75;100.00
62634;BME280;48704;50.534;6.442;2022-08-19T01:11:35;95435.75;;;14.89;100.00
62634;BME280;48704;50.534;6.442;2022-08-19T01:14:02;95438.06;;;14.85;100.00
62634;BME280;48704;50.534;6.442;2022-08-19T01:16:28;95438.31;;;14.98;100.00
62634;BME280;48704;50.534;6.442;2022-08-19T01:18:55;95438.31;;;14.76;100.00
62634;BME280;48704;50.534;6.442;2022-08-19T01:23:53;95433.19;;;15.02;100.00
62634;BME280;48704;50.534;6.442;2022-08-19T01:26:20;95427.59;;;15.02;100.00
62634;BME280;48704;50.534;6.442;2022-08-19T01:28:48;95435.25;;;15.07;100.00
62634;BME280;48704;50.534;6.442;2022-08-19T01:31:18;95431.13;;;15.30;100.00
62634;BME280;48704;50.534;6.442;2022-08-19T01:33:44;95429.13;;;15.14;100.00
62634;BME280;48704;50.534;6.442;2022-08-19T01:36:15;95425.53;;;15.19;100.00
62634;BME280;48704;50.534;6.442;2022-08-19T01:38:42;95426.56;;;15.16;100.00
62634;BME280;48704;50.534;6.442;2022-08-19T01:41:09;95425.53;;;15.14;100.00
62634;BME280;48704;50.534;6.442;2022-08-19T01:43:36;95416.88;;;15.00;100.00
62634;BME280;48704;50.534;6.442;2022-08-19T01:46:02;95419.44;;;14.82;100.00
62634;BME280;48704;50.534;6.442;2022-08-19T01:48:35;95405.63;;;15.17;100.00
62634;BME280;48704;50.534;6.442;2022-08-19T01:51:01;95401.50;;;15.29;100.00
62634;BME280;48704;50.534;6.442;2022-08-19T01:53:26;95413.31;;;15.11;100.00
62634;BME280;48704;50.534;6.442;2022-08-19T01:55:52;95408.72;;;15.08;100.00
62634;BME280;48704;50.534;6.442;2022-08-19T01:58:22;95416.63;;;14.98;100.00
62634;BME280;48704;50.534;6.442;2022-08-19T02:00:49;95413.56;;;14.85;100.00
62634;BME280;48704;50.534;6.442;2022-08-19T02:03:14;95413.84;;;14.82;100.00
62634;BME280;48704;50.534;6.442;2022-08-19T02:05:41;95412.28;;;14.92;100.00
62634;BME280;48704;50.534;6.442;2022-08-19T02:08:07;95409.47;;;15.03;100.00
62634;BME280;48704;50.534;6.442;2022-08-19T02:10:33;95408.16;;;15.26;100.00
62634;BME280;48704;50.534;6.442;2022-08-19T02:12:59;95414.78;;;15.23;100.00
62634;BME280;48704;50.534;6.442;2022-08-19T02:15:24;95410.75;;;15.02;100.00
62634;BME280;48704;50.534;6.442;2022-08-19T02:17:50;95412.03;;;14.95;100.00
62634;BME280;48704;50.534;6.442;2022-08-19T02:20:16;95419.16;;;14.91;100.00
62634;BME280;48704;50.534;6.442;2022-08-19T02:22:42;95426.84;;;14.85;100.00
62634;BME280;48704;50.534;6.442;2022-08-19T02:25:09;95421.47;;;14.76;100.00
62634;BME280;48704;50.534;6.442;2022-08-19T02:27:35;95424.53;;;14.66;100.00
62634;BME280;48704;50.534;6.442;2022-08-19T02:30:01;95429.63;;;14.62;100.00
62634;BME280;48704;50.534;6.442;2022-08-19T02:32:26;95429.38;;;14.66;100.00
62634;BME280;48704;50.534;6.442;2022-08-19T02:34:52;95428.59;;;14.99;100.00
62634;BME280;48704;50.534;6.442;2022-08-19T02:37:18;95424.53;;;15.00;100.00
62634;BME280;48704;50.534;6.442;2022-08-19T02:40:02;95433.72;;;14.67;100.00
62634;BME280;48704;50.534;6.442;2022-08-19T02:42:28;95433.72;;;14.73;100.00
62634;BME280;48704;50.534;6.442;2022-08-19T02:44:55;95435.25;;;14.74;100.00
62634;BME280;48704;50.534;6.442;2022-08-19T02:47:20;95439.03;;;14.48;100.00
62634;BME280;48704;50.534;6.442;2022-08-19T02:49:46;95442.88;;;14.67;100.00
62634;BME280;48704;50.534;6.442;2022-08-19T02:52:11;95432.19;;;14.94;100.00
62634;BME280;48704;50.534;6.442;2022-08-19T02:54:37;95432.19;;;14.99;100.00
62634;BME280;48704;50.534;6.442;2022-08-19T02:57:04;95439.06;;;15.10;100.00
62634;BME280;48704;50.534;6.442;2022-08-19T02:59:30;95430.09;;;15.22;100.00
62634;BME280;48704;50.534;6.442;2022-08-19T03:01:56;95433.16;;;15.24;100.00
62634;BME280;48704;50.534;6.442;2022-08-19T03:04:21;95431.88;;;15.25;100.00
62634;BME280;48704;50.534;6.442;2022-08-19T03:06:48;95432.16;;;14.49;100.00
62634;BME280;48704;50.534;6.442;2022-08-19T03:09:14;95432.66;;;14.53;100.00
62634;BME280;48704;50.534;6.442;2022-08-19T03:11:40;95436.75;;;14.63;100.00
62634;BME280;48704;50.534;6.442;2022-08-19T03:14:07;95421.22;;;14.62;100.00
62634;BME280;48704;50.534;6.442;2022-08-19T03:16:43;95423.19;;;14.39;100.00
62634;BME280;48704;50.534;6.442;2022-08-19T03:19:09;95424.78;;;14.46;100.00
62634;BME280;48704;50.534;6.442;2022-08-19T03:21:34;95416.88;;;14.61;100.00
62634;BME280;48704;50.534;6.442;2022-08-19T03:24:03;95408.19;;;14.59;100.00
62634;BME280;48704;50.534;6.442;2022-08-19T03:26:45;95413.59;;;14.80;100.00
62634;BME280;48704;50.534;6.442;2022-08-19T03:29:11;95418.41;;;14.79;100.00
62634;BME280;48704;50.534;6.442;2022-08-19T03:31:38;95421.72;;;14.89;100.00
62634;BME280;48704;50.534;6.442;2022-08-19T03:34:04;95426.56;;;14.94;100.00
62634;BME280;48704;50.534;6.442;2022-08-19T03:36:30;95424.28;;;15.03;100.00
62634;BME280;48704;50.534;6.442;2022-08-19T03:38:58;95427.59;;;15.13;100.00
62634;BME280;48704;50.534;6.442;2022-08-19T03:41:26;95431.91;;;15.14;100.00
62634;BME280;48704;50.534;6.442;2022-08-19T03:43:53;95425.53;;;15.14;100.00
62634;BME280;48704;50.534;6.442;2022-08-19T03:46:24;95423.00;;;15.10;100.00
62634;BME280;48704;50.534;6.442;2022-08-19T03:48:51;95426.31;;;15.03;100.00
62634;BME280;48704;50.534;6.442;2022-08-19T03:51:31;95430.13;;;15.00;100.00
62634;BME280;48704;50.534;6.442;2022-08-19T03:53:59;95428.59;;;14.99;100.00
62634;BME280;48704;50.534;6.442;2022-08-19T03:56:26;95431.66;;;15.18;100.00
62634;BME280;48704;50.534;6.442;2022-08-19T03:58:53;95443.91;;;15.09;100.00
62634;BME280;48704;50.534;6.442;2022-08-19T04:01:20;95441.09;;;15.15;100.00
62634;BME280;48704;50.534;6.442;2022-08-19T04:03:47;95444.66;;;15.26;100.00
62634;BME280;48704;50.534;6.442;2022-08-19T04:06:15;95444.69;;;15.15;100.00
62634;BME280;48704;50.534;6.442;2022-08-19T04:08:42;95435.50;;;15.03;100.00
62634;BME280;48704;50.534;6.442;2022-08-19T04:11:10;95439.06;;;14.87;100.00
62634;BME280;48704;50.534;6.442;2022-08-19T04:13:36;95441.38;;;14.78;100.00
62634;BME280;48704;50.534;6.442;2022-08-19T04:16:01;95442.63;;;14.93;100.00
62634;BME280;48704;50.534;6.442;2022-08-19T04:18:26;95433.72;;;14.95;100.00
62634;BME280;48704;50.534;6.442;2022-08-19T04:20:55;95448.75;;;15.14;100.00
62634;BME280;48704;50.534;6.442;2022-08-19T04:23:20;95448.50;;;15.12;100.00
62634;BME280;48704;50.534;6.442;2022-08-19T04:25:45;95458.44;;;15.24;100.00
62634;BME280;48704;50.534;6.442;2022-08-19T04:28:12;95462.75;;;15.25;100.00
62634;BME280;48704;50.534;6.442;2022-08-19T04:30:45;95467.38;;;14.95;100.00
62634;BME280;48704;50.534;6.442;2022-08-19T04:33:13;95461.78;;;14.84;100.00
62634;BME280;48704;50.534;6.442;2022-08-19T04:35:45;95456.41;;;14.91;100.00
62634;BME280;48704;50.534;6.442;2022-08-19T04:38:12;95463.31;;;15.07;100.00
62634;BME280;48704;50.534;6.442;2022-08-19T04:40:47;95466.63;;;15.00;100.00
62634;BME280;48704;50.534;6.442;2022-08-19T04:43:32;95472.72;;;14.93;100.00
62634;BME280;48704;50.534;6.442;2022-08-19T04:45:58;95464.03;;;14.85;100.00
62634;BME280;48704;50.534;6.442;2022-08-19T04:48:24;95471.97;;;14.98;100.00
62634;BME280;48704;50.534;6.442;2022-08-19T04:50:54;95466.34;;;14.92;100.00
62634;BME280;48704;50.534;6.442;2022-08-19T04:53:30;95470.44;;;14.69;100.00
62634;BME280;48704;50.534;6.442;2022-08-19T04:55:58;95464.84;;;15.08;100.00
62634;BME280;48704;50.534;6.442;2022-08-19T04:58:27;95469.94;;;15.15;100.00
62634;BME280;48704;50.534;6.442;2022-08-19T05:00:53;95477.34;;;15.13;100.00
62634;BME280;48704;50.534;6.442;2022-08-19T05:03:19;95484.47;;;15.19;100.00
62634;BME280;48704;50.534;6.442;2022-08-19T05:05:46;95476.53;;;15.23;100.00
62634;BME280;48704;50.534;6.442;2022-08-19T05:08:15;95481.66;;;15.08;100.00
62634;BME280;48704;50.534;6.442;2022-08-19T05:10:45;95494.69;;;15.05;100.00
62634;BME280;48704;50.534;6.442;2022-08-19T05:13:11;95497.72;;;14.91;100.00
62634;BME280;48704;50.534;6.442;2022-08-19T05:15:36;95502.31;;;14.88;100.00
62634;BME280;48704;50.534;6.442;2022-08-19T05:18:01;95498.75;;;15.10;100.00
62634;BME280;48704;50.534;6.442;2022-08-19T05:20:45;95499.25;;;14.92;100.00
62634;BME280;48704;50.534;6.442;2022-08-19T05:23:29;95494.91;;;15.30;100.00
62634;BME280;48704;50.534;6.442;2022-08-19T05:25:55;95510.22;;;14.79;100.00
62634;BME280;48704;50.534;6.442;2022-08-19T05:28:21;95509.22;;;15.04;100.00
62634;BME280;48704;50.534;6.442;2022-08-19T05:30:46;95516.09;;;14.97;100.00
62634;BME280;48704;50.534;6.442;2022-08-19T05:33:13;95507.19;;;15.10;100.00
62634;BME280;48704;50.534;6.442;2022-08-19T05:35:39;95503.59;;;15.37;100.00
62634;BME280;48704;50.534;6.442;2022-08-19T05:38:05;95507.66;;;14.92;100.00
62634;BME280;48704;50.534;6.442;2022-08-19T05:40:34;95504.59;;;14.90;100.00
62634;BME280;48704;50.534;6.442;2022-08-19T05:43:02;95502.84;;;14.98;100.00
62634;BME280;48704;50.534;6.442;2022-08-19T05:45:27;95496.97;;;15.18;100.00
62634;BME280;48704;50.534;6.442;2022-08-19T05:47:53;95497.75;;;15.19;100.00
62634;BME280;48704;50.534;6.442;2022-08-19T05:50:19;95501.59;;;15.21;100.00
62634;BME280;48704;50.534;6.442;2022-08-19T05:52:44;95494.41;;;15.31;100.00
62634;BME280;48704;50.534;6.442;2022-08-19T05:55:10;95507.44;;;15.07;100.00
62634;BME280;48704;50.534;6.442;2022-08-19T05:57:36;95502.56;;;15.29;100.00
62634;BME280;48704;50.534;6.442;2022-08-19T06:00:04;95506.41;;;15.37;100.00
62634;BME280;48704;50.534;6.442;2022-08-19T06:02:33;95502.09;;;15.14;100.00
62634;BME280;48704;50.534;6.442;2022-08-19T06:05:00;95494.91;;;15.47;100.00
62634;BME280;48704;50.534;6.442;2022-08-19T06:07:26;95499.50;;;15.61;100.00
62634;BME280;48704;50.534;6.442;2022-08-19T06:09:52;95496.41;;;15.70;100.00
62634;BME280;48704;50.534;6.442;2022-08-19T06:12:17;95497.97;;;15.60;100.00
62634;BME280;48704;50.534;6.442;2022-08-19T06:14:43;95500.75;;;15.71;100.00
62634;BME280;48704;50.534;6.442;2022-08-19T06:17:08;95495.16;;;15.65;100.00
62634;BME280;48704;50.534;6.442;2022-08-19T06:19:33;95495.63;;;15.81;100.00
62634;BME280;48704;50.534;6.442;2022-08-19T06:22:00;95496.91;;;15.85;100.00
62634;BME280;48704;50.534;6.442;2022-08-19T06:24:28;95499.19;;;15.92;100.00
62634;BME280;48704;50.534;6.442;2022-08-19T06:26:55;95503.03;;;15.78;100.00
62634;BME280;48704;50.534;6.442;2022-08-19T06:29:23;95503.31;;;15.80;100.00
62634;BME280;48704;50.534;6.442;2022-08-19T06:31:52;95507.13;;;15.88;100.00
62634;BME280;48704;50.534;6.442;2022-08-19T06:34:18;95502.78;;;15.87;100.00
62634;BME280;48704;50.534;6.442;2022-08-19T06:36:49;95499.69;;;15.91;100.00
62634;BME280;48704;50.534;6.442;2022-08-19T06:39:18;95505.63;;;15.65;100.00
62634;BME280;48704;50.534;6.442;2022-08-19T06:41:46;95516.63;;;15.57;100.00
62634;BME280;48704;50.534;6.442;2022-08-19T06:44:12;95506.66;;;15.62;100.00
62634;BME280;48704;50.534;6.442;2022-08-19T06:46:39;95504.06;;;15.81;100.00
62634;BME280;48704;50.534;6.442;2022-08-19T06:49:05;95507.41;;;15.68;100.00
62634;BME280;48704;50.534;6.442;2022-08-19T06:51:31;95503.06;;;15.67;100.00
62634;BME280;48704;50.534;6.442;2022-08-19T06:53:58;95503.56;;;15.71;100.00
62634;BME280;48704;50.534;6.442;2022-08-19T06:56:26;95503.31;;;15.63;100.00
62634;BME280;48704;50.534;6.442;2022-08-19T06:59:02;95502.84;;;15.31;100.00
62634;BME280;48704;50.534;6.442;2022-08-19T07:01:28;95515.84;;;15.68;100.00
62634;BME280;48704;50.534;6.442;2022-08-19T07:03:53;95526.56;;;15.64;100.00
62634;BME280;48704;50.534;6.442;2022-08-19T07:06:19;95520.94;;;15.64;100.00
62634;BME280;48704;50.534;6.442;2022-08-19T07:08:46;95518.38;;;15.66;100.00
62634;BME280;48704;50.534;6.442;2022-08-19T07:11:15;95534.19;;;15.91;100.00
62634;BME280;48704;50.534;6.442;2022-08-19T07:13:42;95540.84;;;15.88;100.00
62634;BME280;48704;50.534;6.442;2022-08-19T07:16:15;95542.38;;;15.89;100.00
62634;BME280;48704;50.534;6.442;2022-08-19T07:18:41;95534.38;;;16.16;100.00
62634;BME280;48704;50.534;6.442;2022-08-19T07:21:17;95532.47;;;16.35;100.00
62634;BME280;48704;50.534;6.442;2022-08-19T07:23:43;95534.63;;;16.07;100.00
62634;BME280;48704;50.534;6.442;2022-08-19T07:28:35;95535.06;;;16.33;100.00
62634;BME280;48704;50.534;6.442;2022-08-19T07:31:05;95543.97;;;16.43;100.00
62634;BME280;48704;50.534;6.442;2022-08-19T07:33:31;95539.38;;;16.39;100.00
62634;BME280;48704;50.534;6.442;2022-08-19T07:35:57;95549.41;;;16.24;100.00
62634;BME280;48704;50.534;6.442;2022-08-19T07:38:23;95537.38;;;16.29;100.00
62634;BME280;48704;50.534;6.442;2022-08-19T07:40:48;95541.75;;;16.19;100.00
62634;BME280;48704;50.534;6.442;2022-08-19T07:43:14;95549.34;;;16.35;100.00
62634;BME280;48704;50.534;6.442;2022-08-19T07:45:40;95549.81;;;16.50;100.00
62634;BME280;48704;50.534;6.442;2022-08-19T07:48:05;95551.84;;;16.55;100.00
62634;BME280;48704;50.534;6.442;2022-08-19T07:50:31;95552.00;;;16.74;100.00
62634;BME280;48704;50.534;6.442;2022-08-19T07:52:56;95558.03;;;17.00;100.00
62634;BME280;48704;50.534;6.442;2022-08-19T07:55:24;95555.72;;;16.99;100.00
62634;BME280;48704;50.534;6.442;2022-08-19T07:57:50;95559.09;;;16.92;100.00
62634;BME280;48704;50.534;6.442;2022-08-19T08:00:17;95560.97;;;16.73;100.00
62634;BME280;48704;50.534;6.442;2022-08-19T08:02:43;95557.88;;;16.82;100.00
62634;BME280;48704;50.534;6.442;2022-08-19T08:05:10;95559.84;;;16.98;100.00
62634;BME280;48704;50.534;6.442;2022-08-19T08:07:54;95563.94;;;16.97;100.00
62634;BME280;48704;50.534;6.442;2022-08-19T08:10:38;95566.44;;;17.06;100.00
62634;BME280;48704;50.534;6.442;2022-08-19T08:13:03;95566.22;;;16.98;100.00
62634;BME280;48704;50.534;6.442;2022-08-19T08:15:31;95560.44;;;16.80;100.00
62634;BME280;48704;50.534;6.442;2022-08-19T08:17:56;95557.16;;;17.11;100.00
62634;BME280;48704;50.534;6.442;2022-08-19T08:20:23;95557.69;;;17.10;100.00
62634;BME280;48704;50.534;6.442;2022-08-19T08:22:48;95565.03;;;17.24;100.00
62634;BME280;48704;50.534;6.442;2022-08-19T08:25:32;95573.44;;;17.29;100.00
62634;BME280;48704;50.534;6.442;2022-08-19T08:27:58;95572.63;;;17.34;100.00
62634;BME280;48704;50.534;6.442;2022-08-19T08:30:26;95568.88;;;17.56;100.00
62634;BME280;48704;50.534;6.442;2022-08-19T08:32:52;95575.47;;;17.64;100.00
62634;BME280;48704;50.534;6.442;2022-08-19T08:35:20;95575.00;;;17.90;100.00
62634;BME280;48704;50.534;6.442;2022-08-19T08:37:47;95575.66;;;18.02;100.00
62634;BME280;48704;50.534;6.442;2022-08-19T08:42:55;95573.59;;;18.51;100.00
62634;BME280;48704;50.534;6.442;2022-08-19T08:45:26;95583.16;;;18.67;100.00
62634;BME280;48704;50.534;6.442;2022-08-19T08:47:53;95579.53;;;18.91;100.00
62634;BME280;48704;50.534;6.442;2022-08-19T08:50:29;95577.53;;;19.23;97.33
62634;BME280;48704;50.534;6.442;2022-08-19T08:53:01;95573.22;;;19.35;93.64
62634;BME280;48704;50.534;6.442;2022-08-19T08:55:28;95566.81;;;19.35;93.74
62634;BME280;48704;50.534;6.442;2022-08-19T08:58:03;95567.34;;;19.52;94.49
62634;BME280;48704;50.534;6.442;2022-08-19T09:00:33;95567.91;;;19.13;100.00
62634;BME280;48704;50.534;6.442;2022-08-19T09:02:59;95562.69;;;19.55;95.62
62634;BME280;48704;50.534;6.442;2022-08-19T09:05:42;95567.34;;;19.52;94.55
62634;BME280;48704;50.534;6.442;2022-08-19T09:08:32;95576.59;;;19.53;93.19
62634;BME280;48704;50.534;6.442;2022-08-19T09:10:59;95573.00;;;19.33;94.79
62634;BME280;48704;50.534;6.442;2022-08-19T09:13:37;95579.06;;;19.24;97.82
62634;BME280;48704;50.534;6.442;2022-08-19T09:16:13;95565.22;;;19.72;95.72
62634;BME280;48704;50.534;6.442;2022-08-19T09:18:49;95570.63;;;19.37;95.95
62634;BME280;48704;50.534;6.442;2022-08-19T09:21:18;95569.75;;;19.29;95.90
62634;BME280;48704;50.534;6.442;2022-08-19T09:23:44;95579.72;;;19.81;94.80
62634;BME280;48704;50.534;6.442;2022-08-19T09:26:13;95571.00;;;19.79;93.74
62634;BME280;48704;50.534;6.442;2022-08-19T09:28:39;95572.66;;;19.88;93.72
62634;BME280;48704;50.534;6.442;2022-08-19T09:31:08;95572.78;;;19.95;93.07
62634;BME280;48704;50.534;6.442;2022-08-19T09:33:33;95577.81;;;20.02;90.33
62634;BME280;48704;50.534;6.442;2022-08-19T09:36:04;95573.44;;;19.88;92.67
62634;BME280;48704;50.534;6.442;2022-08-19T09:38:29;95574.53;;;20.12;92.09
62634;BME280;48704;50.534;6.442;2022-08-19T09:40:54;95578.28;;;20.33;90.86
62634;BME280;48704;50.534;6.442;2022-08-19T09:43:20;95584.19;;;20.48;90.34
62634;BME280;48704;50.534;6.442;2022-08-19T09:45:45;95579.59;;;20.58;86.67
62634;BME280;48704;50.534;6.442;2022-08-19T09:48:10;95576.56;;;20.69;86.28
62634;BME280;48704;50.534;6.442;2022-08-19T09:50:35;95575.91;;;20.77;87.06
62634;BME280;48704;50.534;6.442;2022-08-19T09:53:03;95570.19;;;21.03;84.23
62634;BME280;48704;50.534;6.442;2022-08-19T09:55:28;95576.13;;;20.65;85.35
62634;BME280;48704;50.534;6.442;2022-08-19T09:57:54;95572.19;;;20.68;85.09
62634;BME280;48704;50.534;6.442;2022-08-19T10:00:19;95574.34;;;20.89;84.88
62634;BME280;48704;50.534;6.442;2022-08-19T10:02:45;95578.44;;;21.14;85.06
62634;BME280;48704;50.534;6.442;2022-08-19T10:05:11;95570.28;;;21.11;82.26
62634;BME280;48704;50.534;6.442;2022-08-19T10:07:54;95565.66;;;20.47;85.83
62634;BME280;48704;50.534;6.442;2022-08-19T10:10:20;95575.19;;;20.97;83.20
62634;BME280;48704;50.534;6.442;2022-08-19T10:12:45;95565.81;;;21.15;81.84
62634;BME280;48704;50.534;6.442;2022-08-19T10:15:12;95571.13;;;20.58;82.48
62634;BME280;48704;50.534;6.442;2022-08-19T10:17:38;95565.63;;;20.87;82.46
62634;BME280;48704;50.534;6.442;2022-08-19T10:20:04;95566.50;;;21.42;77.98
62634;BME280;48704;50.534;6.442;2022-08-19T10:22:29;95563.38;;;21.19;79.44
62634;BME280;48704;50.534;6.442;2022-08-19T10:24:55;95561.88;;;21.52;76.81
62634;BME280;48704;50.534;6.442;2022-08-19T10:27:21;95565.81;;;21.70;75.04
62634;BME280;48704;50.534;6.442;2022-08-19T10:29:47;95563.59;;;22.46;71.99
62634;BME280;48704;50.534;6.442;2022-08-19T10:32:13;95564.59;;;22.28;71.52
62634;BME280;48704;50.534;6.442;2022-08-19T10:34:39;95568.47;;;22.38;71.40
62634;BME280;48704;50.534;6.442;2022-08-19T10:37:05;95568.56;;;22.53;70.64
62634;BME280;48704;50.534;6.442;2022-08-19T10:39:35;95568.16;;;22.49;69.70
62634;BME280;48704;50.534;6.442;2022-08-19T10:42:07;95561.56;;;22.83;70.25
62634;BME280;48704;50.534;6.442;2022-08-19T10:44:35;95556.88;;;21.11;75.39
62634;BME280;48704;50.534;6.442;2022-08-19T10:47:01;95555.59;;;21.88;73.27
62634;BME280;48704;50.534;6.442;2022-08-19T10:49:27;95555.94;;;22.33;69.22
62634;BME280;48704;50.534;6.442;2022-08-19T10:51:52;95550.31;;;22.41;66.81
62634;BME280;48704;50.534;6.442;2022-08-19T10:54:36;95560.16;;;23.12;65.02
62634;BME280;48704;50.534;6.442;2022-08-19T10:57:20;95543.75;;;22.82;65.45
62634;BME280;48704;50.534;6.442;2022-08-19T10:59:49;95543.63;;;23.03;65.18
62634;BME280;48704;50.534;6.442;2022-08-19T11:02:14;95553.44;;;23.38;61.33
62634;BME280;48704;50.534;6.442;2022-08-19T11:04:40;95544.69;;;23.28;63.07
62634;BME280;48704;50.534;6.442;2022-08-19T11:07:07;95545.56;;;23.82;62.61
62634;BME280;48704;50.534;6.442;2022-08-19T11:09:38;95551.31;;;24.91;57.55
62634;BME280;48704;50.534;6.442;2022-08-19T11:12:04;95539.03;;;24.81;57.66
62634;BME280;48704;50.534;6.442;2022-08-19T11:14:30;95548.03;;;25.17;57.67
62634;BME280;48704;50.534;6.442;2022-08-19T11:16:56;95547.66;;;25.13;56.01
62634;BME280;48704;50.534;6.442;2022-08-19T11:19:22;95544.72;;;23.36;61.28
62634;BME280;48704;50.534;6.442;2022-08-19T11:21:50;95548.22;;;23.80;60.12
62634;BME280;48704;50.534;6.442;2022-08-19T11:24:18;95546.72;;;24.32;58.14
62634;BME280;48704;50.534;6.442;2022-08-19T11:26:45;95543.69;;;24.30;56.73
62634;BME280;48704;50.534;6.442;2022-08-19T11:29:12;95549.97;;;24.92;54.11
62634;BME280;48704;50.534;6.442;2022-08-19T11:31:43;95544.81;;;24.50;54.84
62634;BME280;48704;50.534;6.442;2022-08-19T11:34:11;95534.56;;;25.43;53.34
62634;BME280;48704;50.534;6.442;2022-08-19T11:36:40;95535.66;;;25.87;51.56
62634;BME280;48704;50.534;6.442;2022-08-19T11:39:08;95537.16;;;25.56;53.28
62634;BME280;48704;50.534;6.442;2022-08-19T11:41:33;95541.72;;;25.59;53.76
62634;BME280;48704;50.534;6.442;2022-08-19T11:43:59;95541.69;;;24.79;53.93
62634;BME280;48704;50.534;6.442;2022-08-19T11:46:26;95539.41;;;24.70;53.35
62634;BME280;48704;50.534;6.442;2022-08-19T11:48:55;95532.97;;;24.61;52.00
62634;BME280;48704;50.534;6.442;2022-08-19T11:51:22;95534.47;;;24.78;52.05
62634;BME280;48704;50.534;6.442;2022-08-19T11:53:49;95534.13;;;24.58;53.00
62634;BME280;48704;50.534;6.442;2022-08-19T11:56:15;95529.13;;;25.62;47.50
62634;BME280;48704;50.534;6.442;2022-08-19T11:58:41;95534.72;;;25.85;44.56
62634;BME280;48704;50.534;6.442;2022-08-19T12:01:10;95535.00;;;25.31;46.26
62634;BME280;48704;50.534;6.442;2022-08-19T12:03:37;95535.53;;;25.05;48.68
62634;BME280;48704;50.534;6.442;2022-08-19T12:06:08;95535.47;;;25.20;46.02
62634;BME280;48704;50.534;6.442;2022-08-19T12:08:35;95522.88;;;25.88;47.03
62634;BME280;48704;50.534;6.442;2022-08-19T12:11:01;95519.00;;;26.60;44.46
62634;BME280;48704;50.534;6.442;2022-08-19T12:13:28;95524.56;;;26.93;44.80
62634;BME280;48704;50.534;6.442;2022-08-19T12:15:55;95521.50;;;27.25;44.65
62634;BME280;48704;50.534;6.442;2022-08-19T12:18:20;95512.91;;;27.25;44.42
62634;BME280;48704;50.534;6.442;2022-08-19T12:20:45;95511.75;;;26.77;46.89
62634;BME280;48704;50.534;6.442;2022-08-19T12:23:12;95505.41;;;27.57;46.33
62634;BME280;48704;50.534;6.442;2022-08-19T12:25:44;95510.09;;;26.56;46.28
62634;BME280;48704;50.534;6.442;2022-08-19T12:28:15;95508.25;;;26.86;44.70
62634;BME280;48704;50.534;6.442;2022-08-19T12:30:41;95510.81;;;25.73;46.36
62634;BME280;48704;50.534;6.442;2022-08-19T12:33:07;95506.66;;;27.37;44.52
62634;BME280;48704;50.534;6.442;2022-08-19T12:35:33;95518.13;;;27.37;43.94
62634;BME280;48704;50.534;6.442;2022-08-19T12:37:58;95505.84;;;27.53;42.94
62634;BME280;48704;50.534;6.442;2022-08-19T12:40:24;95513.06;;;26.66;44.60
62634;BME280;48704;50.534;6.442;2022-08-19T12:42:50;95507.72;;;25.21;48.86
62634;BME280;48704;50.534;6.442;2022-08-19T12:45:16;95506.50;;;27.35;44.90
62634;BME280;48704;50.534;6.442;2022-08-19T12:47:41;95509.97;;;27.33;42.68
62634;BME280;48704;50.534;6.442;2022-08-19T12:50:08;95502.31;;;27.99;41.88
62634;BME280;48704;50.534;6.442;2022-08-19T12:52:37;95510.28;;;27.10;44.49
62634;BME280;48704;50.534;6.442;2022-08-19T12:55:05;95512.03;;;27.86;42.44
62634;BME280;48704;50.534;6.442;2022-08-19T12:57:31;95499.25;;;27.87;43.52
62634;BME280;48704;50.534;6.442;2022-08-19T13:00:08;95512.22;;;28.35;43.05
62634;BME280;48704;50.534;6.442;2022-08-19T13:02:37;95503.41;;;27.23;45.82